createdAt,value
2016-04-05T00:00:28.402Z,53.62
2016-04-05T00:01:28.421Z,53.4
2016-04-05T00:02:28.438Z,53.78
2016-04-05T00:03:28.457Z,53.97
2016-04-05T00:04:28.475Z,54.64
2016-04-05T00:05:28.494Z,54.64
2016-04-05T00:06:28.527Z,54.55
2016-04-05T00:07:28.531Z,54.74
2016-04-05T00:08:28.565Z,54.74
2016-04-05T00:09:28.568Z,55.12
2016-04-05T00:10:28.601Z,54.64
2016-04-05T00:11:28.619Z,54.74
2016-04-05T00:12:28.638Z,54.93
2016-04-05T00:13:28.656Z,55.22
2016-04-05T00:14:28.659Z,55.31
2016-04-05T00:15:28.676Z,54.83
2016-04-05T00:16:28.711Z,55.22
2016-04-05T00:17:28.729Z,54.93
2016-04-05T00:18:28.731Z,55.6
2016-04-05T00:19:28.782Z,55.76
2016-04-05T00:20:28.784Z,55.38
2016-04-05T00:21:28.803Z,55.76
2016-04-05T00:22:28.821Z,55.96
2016-04-05T00:23:28.839Z,56.82
2016-04-05T00:24:28.842Z,56.72
2016-04-05T00:25:28.875Z,57.01
2016-04-05T00:26:28.894Z,56.72
2016-04-05T00:27:28.928Z,56.82
2016-04-05T00:28:28.931Z,56.91
2016-04-05T00:29:28.934Z,57.48
2016-04-05T00:30:28.967Z,56.82
2016-04-05T00:31:28.986Z,57.48
2016-04-05T00:32:29.005Z,57.2
2016-04-05T00:33:29.023Z,56.72
2016-04-05T00:34:29.041Z,57.01
2016-04-05T00:35:29.059Z,56.72
2016-04-05T00:36:29.077Z,57.17
2016-04-05T00:37:29.096Z,57.17
2016-04-05T00:38:29.113Z,57.26
2016-04-05T00:39:29.132Z,57.75
2016-04-05T00:40:29.151Z,56.98
2016-04-05T00:41:29.169Z,57.17
2016-04-05T00:42:29.203Z,57.07
2016-04-05T00:43:29.221Z,57.17
2016-04-05T00:44:29.427Z,57.46
2016-04-05T00:45:29.242Z,57.84
2016-04-05T00:46:29.260Z,58.32
2016-04-05T00:47:29.279Z,57.65
2016-04-05T00:48:29.297Z,58.22
2016-04-05T00:49:29.315Z,58.51
2016-04-05T00:50:29.348Z,58.41
2016-04-05T00:51:29.351Z,57.26
2016-04-05T00:52:29.370Z,57.93
2016-04-05T00:53:29.388Z,58.38
2016-04-05T00:54:29.407Z,58.86
2016-04-05T00:55:29.409Z,58.76
2016-04-05T00:56:29.428Z,59.81
2016-04-05T00:57:29.493Z,59.63
2016-04-05T00:58:29.480Z,59.53
2016-04-05T00:59:29.498Z,59.53
2016-04-05T01:00:29.500Z,59.44
2016-04-05T01:01:29.535Z,59.44
2016-04-05T01:02:29.538Z,59.24
2016-04-05T01:03:29.572Z,59.91
2016-04-05T01:04:29.591Z,59.91
2016-04-05T01:05:29.594Z,59.24
2016-04-05T01:06:29.611Z,60.2
2016-04-05T01:07:29.630Z,60.01
2016-04-05T01:08:29.663Z,60.3
2016-04-05T01:09:29.682Z,60.49
2016-04-05T01:10:29.685Z,60.49
2016-04-05T01:11:29.718Z,60.77
2016-04-05T01:12:29.721Z,60.68
2016-04-05T01:13:29.739Z,60.68
2016-04-05T01:14:29.773Z,60.46
2016-04-05T01:15:29.776Z,60.74
2016-04-05T01:16:29.793Z,60.74
2016-04-05T01:17:29.828Z,60.58
2016-04-05T01:18:29.831Z,60.1
2016-04-05T01:19:29.865Z,60.27
2016-04-05T01:20:29.884Z,60.77
2016-04-05T01:21:29.901Z,60.46
2016-04-05T01:22:29.904Z,60.27
2016-04-05T01:23:29.922Z,60.36
2016-04-05T01:24:29.940Z,60.64
2016-04-05T01:25:29.959Z,61.41
2016-04-05T01:26:29.977Z,62.18
2016-04-05T01:27:29.980Z,61.22
2016-04-05T01:28:29.998Z,61.69
2016-04-05T01:29:30.032Z,61.69
2016-04-05T01:30:30.035Z,61.6
2016-04-05T01:31:30.069Z,61.69
2016-04-05T01:32:30.087Z,61.41
2016-04-05T01:33:30.106Z,61.69
2016-04-05T01:34:30.139Z,62.08
2016-04-05T01:35:30.127Z,62.46
2016-04-05T01:36:30.160Z,62.18
2016-04-05T01:37:30.163Z,62.18
2016-04-05T01:38:30.182Z,62.81
2016-04-05T01:39:30.199Z,62.71
2016-04-05T01:40:30.219Z,62.75
2016-04-05T01:41:30.236Z,62.71
2016-04-05T01:42:30.286Z,62.52
2016-04-05T01:43:30.274Z,62.52
2016-04-05T01:44:30.291Z,62.15
2016-04-05T01:45:30.330Z,62.71
2016-04-05T01:46:30.392Z,62.05
2016-04-05T01:47:30.342Z,62.71
2016-04-05T01:48:30.375Z,62.24
2016-04-05T01:49:30.526Z,62.05
2016-04-05T01:50:30.404Z,62.62
2016-04-05T01:51:30.406Z,62.91
2016-04-05T01:52:30.425Z,62.43
2016-04-05T01:53:30.443Z,62.43
2016-04-05T01:54:30.461Z,62.62
2016-04-05T01:55:30.465Z,62.62
2016-04-05T01:56:30.498Z,62.71
2016-04-05T01:57:30.517Z,62.81
2016-04-05T01:58:30.519Z,62.24
2016-04-05T01:59:30.537Z,62.71
2016-04-05T02:00:30.556Z,63.39
2016-04-05T02:01:30.590Z,63.2
2016-04-05T02:02:30.592Z,63
2016-04-05T02:03:30.611Z,63.57
2016-04-05T02:04:30.645Z,63.57
2016-04-05T02:05:30.648Z,63.29
2016-04-05T02:06:30.651Z,63.39
2016-04-05T02:07:30.684Z,63.39
2016-04-05T02:08:30.692Z,63.2
2016-04-05T02:09:30.726Z,63.2
2016-04-05T02:10:30.744Z,63.57
2016-04-05T02:11:30.778Z,63.29
2016-04-05T02:12:30.765Z,63.76
2016-04-05T02:13:30.783Z,63.73
2016-04-05T02:14:30.802Z,64.21
2016-04-05T02:15:30.804Z,63.73
2016-04-05T02:16:30.838Z,64.02
2016-04-05T02:17:30.856Z,64.21
2016-04-05T02:18:30.859Z,64.21
2016-04-05T02:19:30.877Z,63.64
2016-04-05T02:20:30.896Z,63.64
2016-04-05T02:21:30.915Z,64.21
2016-04-05T02:22:30.932Z,64.5
2016-04-05T02:23:30.951Z,64.02
2016-04-05T02:24:30.970Z,64.12
2016-04-05T02:25:30.987Z,64.02
2016-04-05T02:26:30.990Z,63.83
2016-04-05T02:27:31.023Z,64.78
2016-04-05T02:28:31.026Z,63.92
2016-04-05T02:29:31.061Z,64.12
2016-04-05T02:30:31.063Z,64.4
2016-04-05T02:31:31.082Z,64.69
2016-04-05T02:32:31.100Z,64.4
2016-04-05T02:33:31.119Z,63.92
2016-04-05T02:34:31.136Z,64.02
2016-04-05T02:35:31.155Z,64.31
2016-04-05T02:36:31.173Z,64.69
2016-04-05T02:37:31.176Z,63.92
2016-04-05T02:38:31.194Z,63.45
2016-04-05T02:39:31.228Z,64.97
2016-04-05T02:40:31.246Z,64.59
2016-04-05T02:41:31.265Z,64.5
2016-04-05T02:42:31.268Z,64.59
2016-04-05T02:43:31.285Z,64.69
2016-04-05T02:44:31.305Z,64.78
2016-04-05T02:45:31.321Z,64.78
2016-04-05T02:46:31.311Z,65.55
2016-04-05T02:47:31.333Z,65.26
2016-04-05T02:48:31.370Z,65.17
2016-04-05T02:49:31.328Z,64.88
2016-04-05T02:50:31.334Z,65.04
2016-04-05T02:51:31.349Z,65.93
2016-04-05T02:52:31.362Z,65.61
2016-04-05T02:53:31.376Z,65.61
2016-04-05T02:54:31.389Z,65.04
2016-04-05T02:55:31.404Z,65.83
2016-04-05T02:56:31.421Z,65.23
2016-04-05T02:57:31.422Z,65.7
2016-04-05T02:58:31.438Z,65.52
2016-04-05T02:59:31.455Z,65.7
2016-04-05T03:00:31.472Z,65.99
2016-04-05T03:01:31.474Z,66.38
2016-04-05T03:02:31.507Z,66.28
2016-04-05T03:03:31.524Z,66.28
2016-04-05T03:04:31.370Z,66.66
2016-04-05T03:05:31.560Z,66.09
2016-04-05T03:06:31.563Z,66.09
2016-04-05T03:07:31.580Z,66.18
2016-04-05T03:08:31.615Z,66.18
2016-04-05T03:09:31.649Z,66.09
2016-04-05T03:10:31.667Z,66.09
2016-04-05T03:11:31.670Z,65.99
2016-04-05T03:12:31.657Z,65.99
2016-04-05T03:13:31.691Z,65.99
2016-04-05T03:14:31.694Z,65.99
2016-04-05T03:15:31.712Z,66.38
2016-04-05T03:16:31.746Z,66.38
2016-04-05T03:17:31.733Z,66.75
2016-04-05T03:18:31.782Z,66.47
2016-04-05T03:19:31.785Z,66.56
2016-04-05T03:20:31.803Z,66.09
2016-04-05T03:21:31.821Z,65.99
2016-04-05T03:22:31.824Z,65.99
2016-04-05T03:23:31.843Z,66.18
2016-04-05T03:24:31.861Z,65.99
2016-04-05T03:25:31.864Z,66.47
2016-04-05T03:26:31.882Z,66.47
2016-04-05T03:27:31.901Z,66.28
2016-04-05T03:28:31.919Z,66.85
2016-04-05T03:29:31.938Z,66.75
2016-04-05T03:30:31.940Z,66.75
2016-04-05T03:31:31.974Z,66.75
2016-04-05T03:32:32.009Z,66.66
2016-04-05T03:33:32.011Z,67.04
2016-04-05T03:34:32.014Z,66.66
2016-04-05T03:35:32.032Z,66.94
2016-04-05T03:36:32.047Z,66.75
2016-04-05T03:37:32.066Z,66.85
2016-04-05T03:38:32.083Z,66.94
2016-04-05T03:39:32.103Z,66.94
2016-04-05T03:40:32.105Z,66.66
2016-04-05T03:41:32.124Z,66.38
2016-04-05T03:42:32.141Z,66.28
2016-04-05T03:43:32.160Z,66.75
2016-04-05T03:44:32.178Z,66.94
2016-04-05T03:45:32.181Z,67.14
2016-04-05T03:46:32.199Z,67.14
2016-04-05T03:47:32.233Z,67.33
2016-04-05T03:48:32.236Z,67.14
2016-04-05T03:49:32.255Z,67.71
2016-04-05T03:50:32.273Z,67.61
2016-04-05T03:51:32.291Z,67.14
2016-04-05T03:52:32.293Z,66.94
2016-04-05T03:53:32.343Z,66.66
2016-04-05T03:54:32.362Z,64.56
2016-04-05T03:55:32.365Z,65.29
2016-04-05T03:56:32.368Z,65.67
2016-04-05T03:57:32.385Z,66.24
2016-04-05T03:58:32.404Z,66.24
2016-04-05T03:59:32.422Z,66.34
2016-04-05T04:00:32.425Z,66.91
2016-04-05T04:01:32.458Z,67.39
2016-04-05T04:02:32.461Z,66.82
2016-04-05T04:03:32.479Z,67
2016-04-05T04:04:32.497Z,67.2
2016-04-05T04:05:32.516Z,67.86
2016-04-05T04:06:32.534Z,67.58
2016-04-05T04:07:32.553Z,67.29
2016-04-05T04:08:32.572Z,67.58
2016-04-05T04:09:32.589Z,67.86
2016-04-05T04:10:32.623Z,67.58
2016-04-05T04:11:32.611Z,67.2
2016-04-05T04:12:32.614Z,67.77
2016-04-05T04:13:32.647Z,67.29
2016-04-05T04:14:32.650Z,67.2
2016-04-05T04:15:32.683Z,67.58
2016-04-05T04:16:32.718Z,67.39
2016-04-05T04:17:32.705Z,67.29
2016-04-05T04:18:32.723Z,67.2
2016-04-05T04:19:32.726Z,66.91
2016-04-05T04:20:32.775Z,66.91
2016-04-05T04:21:32.777Z,67.39
2016-04-05T04:22:32.780Z,67.39
2016-04-05T04:23:32.798Z,67.2
2016-04-05T04:24:32.817Z,67.1
2016-04-05T04:25:32.835Z,67.77
2016-04-05T04:26:32.838Z,67.39
2016-04-05T04:27:32.873Z,67
2016-04-05T04:28:32.875Z,66.91
2016-04-05T04:29:32.893Z,67.29
2016-04-05T04:30:32.911Z,67
2016-04-05T04:31:32.929Z,67.86
2016-04-05T04:32:32.948Z,67.68
2016-04-05T04:33:32.967Z,67.77
2016-04-05T04:34:32.985Z,67.96
2016-04-05T04:35:32.987Z,67.96
2016-04-05T04:36:33.005Z,68.44
2016-04-05T04:37:33.025Z,68.15
2016-04-05T04:38:33.058Z,68.24
2016-04-05T04:39:33.045Z,68.34
2016-04-05T04:40:33.064Z,68.15
2016-04-05T04:41:33.097Z,68.34
2016-04-05T04:42:33.100Z,68.72
2016-04-05T04:43:33.119Z,68.15
2016-04-05T04:44:33.121Z,68.53
2016-04-05T04:45:33.155Z,67.96
2016-04-05T04:46:33.158Z,68.15
2016-04-05T04:47:33.177Z,67.86
2016-04-05T04:48:33.194Z,67.48
2016-04-05T04:49:33.213Z,68.05
2016-04-05T04:50:33.215Z,67.58
2016-04-05T04:51:33.249Z,67.48
2016-04-05T04:52:33.252Z,67.96
2016-04-05T04:53:33.270Z,67.58
2016-04-05T04:54:33.289Z,67.77
2016-04-05T04:55:33.307Z,68.05
2016-04-05T04:56:33.309Z,67.86
2016-04-05T04:57:33.329Z,67.68
2016-04-05T04:58:33.346Z,67.77
2016-04-05T04:59:33.365Z,67.96
2016-04-05T05:00:33.414Z,67.96
2016-04-05T05:01:33.385Z,67.96
2016-04-05T05:02:33.420Z,68.24
2016-04-05T05:03:33.422Z,68.05
2016-04-05T05:04:33.440Z,67.77
2016-04-05T05:05:33.459Z,67.77
2016-04-05T05:06:33.492Z,68.34
2016-04-05T05:07:33.495Z,67.77
2016-04-05T05:08:33.498Z,67.39
2016-04-05T05:09:33.532Z,67.29
2016-04-05T05:10:33.534Z,67.58
2016-04-05T05:11:33.553Z,67.39
2016-04-05T05:12:33.415Z,67.29
2016-04-05T05:13:33.589Z,68.24
2016-04-05T05:14:33.608Z,67.29
2016-04-05T05:15:33.627Z,67.2
2016-04-05T05:16:33.630Z,68.34
2016-04-05T05:17:33.647Z,67.77
2016-04-05T05:18:33.665Z,67.86
2016-04-05T05:19:33.669Z,67.77
2016-04-05T05:20:33.702Z,67.96
2016-04-05T05:21:33.720Z,68.63
2016-04-05T05:22:33.739Z,67.96
2016-04-05T05:23:33.741Z,68.53
2016-04-05T05:24:33.760Z,68.34
2016-04-05T05:25:33.779Z,67.96
2016-04-05T05:26:33.781Z,67.96
2016-04-05T05:27:33.799Z,67.48
2016-04-05T05:28:33.818Z,67.77
2016-04-05T05:29:33.836Z,67.29
2016-04-05T05:30:33.854Z,67.58
2016-04-05T05:31:33.857Z,67.23
2016-04-05T05:32:33.875Z,67.8
2016-04-05T05:33:33.893Z,67.52
2016-04-05T05:34:33.912Z,67.52
2016-04-05T05:35:33.930Z,67.04
2016-04-05T05:36:33.964Z,67.04
2016-04-05T05:37:33.967Z,66.75
2016-04-05T05:38:33.984Z,67.14
2016-04-05T05:39:33.988Z,66.75
2016-04-05T05:40:34.006Z,65.7
2016-04-05T05:41:34.024Z,66.18
2016-04-05T05:42:34.043Z,66.09
2016-04-05T05:43:34.061Z,66.28
2016-04-05T05:44:34.080Z,65.7
2016-04-05T05:45:34.098Z,65.61
2016-04-05T05:46:34.116Z,65.52
2016-04-05T05:47:34.119Z,65.8
2016-04-05T05:48:34.136Z,66.38
2016-04-05T05:49:34.155Z,65.83
2016-04-05T05:50:34.173Z,65.17
2016-04-05T05:51:34.191Z,65.36
2016-04-05T05:52:34.210Z,65.26
2016-04-05T05:53:34.244Z,65.36
2016-04-05T05:54:34.247Z,65.55
2016-04-05T05:55:34.249Z,64.4
2016-04-05T05:56:34.283Z,64.97
2016-04-05T05:57:34.286Z,64.78
2016-04-05T05:58:34.320Z,65.2
2016-04-05T05:59:34.338Z,64.43
2016-04-05T06:00:34.341Z,63.39
2016-04-05T06:01:34.360Z,63.57
2016-04-05T06:02:34.378Z,63.39
2016-04-05T06:03:34.395Z,63.57
2016-04-05T06:04:34.430Z,63.2
2016-04-05T06:05:34.417Z,62.75
2016-04-05T06:06:34.466Z,61.98
2016-04-05T06:07:48.563Z,61.51
2016-04-05T06:08:34.472Z,61.6
2016-04-05T06:09:34.490Z,60.87
2016-04-05T06:10:34.337Z,60.3
2016-04-05T06:11:34.527Z,59.34
2016-04-05T06:12:34.545Z,60.2
2016-04-05T06:13:34.564Z,59.05
2016-04-05T06:14:34.581Z,58.32
2016-04-05T06:15:34.584Z,59.18
2016-04-05T06:16:34.603Z,58.22
2016-04-05T06:17:34.636Z,57.84
2016-04-05T06:18:34.733Z,56.5
2016-04-05T06:19:34.689Z,55.54
2016-04-05T06:20:34.676Z,55.26
2016-04-05T06:21:34.772Z,56.02
2016-04-05T06:22:34.728Z,56.05
2016-04-05T06:23:34.747Z,55.29
2016-04-05T06:24:34.766Z,55.1
2016-04-05T06:25:34.611Z,55.67
2016-04-05T06:26:34.785Z,55.86
2016-04-05T06:27:34.805Z,55.86
2016-04-05T06:28:34.823Z,54.9
2016-04-05T06:29:34.840Z,54.64
2016-04-05T06:30:34.875Z,54.55
2016-04-05T06:31:34.893Z,54.45
2016-04-05T06:32:34.912Z,54.83
2016-04-05T06:33:34.929Z,53.97
2016-04-05T06:34:34.948Z,51.87
2016-04-05T06:35:34.967Z,52.56
2016-04-05T06:36:35.000Z,52.95
2016-04-05T06:37:35.003Z,52.09
2016-04-05T06:38:35.021Z,51.79
2016-04-05T06:39:35.040Z,51.42
2016-04-05T06:40:35.058Z,50.38
2016-04-05T06:41:35.076Z,49.43
2016-04-05T06:42:35.095Z,49.05
2016-04-05T06:43:35.113Z,48.59
2016-04-05T06:44:35.131Z,48.59
2016-04-05T06:45:35.165Z,48.52
2016-04-05T06:46:35.168Z,47.27
2016-04-05T06:47:35.186Z,47.37
2016-04-05T06:48:35.219Z,46.24
2016-04-05T06:49:35.239Z,45.83
2016-04-05T06:50:35.272Z,44.42
2016-04-05T06:51:35.275Z,44.42
2016-04-05T06:52:35.309Z,44.13
2016-04-05T06:53:35.311Z,44.8
2016-04-05T06:54:35.346Z,43.65
2016-04-05T06:55:35.380Z,44.15
2016-04-05T06:56:35.382Z,43.48
2016-04-05T06:57:35.416Z,42.52
2016-04-05T06:58:35.419Z,42.81
2016-04-05T06:59:35.452Z,42.43
2016-04-05T07:00:35.471Z,40.79
2016-04-05T07:01:35.490Z,38.87
2016-04-05T07:02:35.507Z,38.96
2016-04-05T07:03:35.526Z,39.54
2016-04-05T07:04:35.560Z,39.35
2016-04-05T07:05:35.562Z,38.6
2016-04-05T07:06:35.628Z,38.22
2016-04-05T07:07:35.633Z,38.22
2016-04-05T07:08:35.635Z,36.49
2016-04-05T07:09:35.669Z,36.68
2016-04-05T07:10:35.687Z,36.4
2016-04-05T07:11:35.705Z,37.26
2016-04-05T07:12:35.724Z,35.63
2016-04-05T07:13:35.758Z,35.83
2016-04-05T07:14:35.777Z,36.68
2016-04-05T07:15:35.638Z,36.51
2016-04-05T07:16:35.828Z,35.83
2016-04-05T07:17:35.831Z,36.03
2016-04-05T07:18:35.850Z,35.55
2016-04-05T07:19:35.868Z,36.99
2016-04-05T07:20:35.902Z,37.37
2016-04-05T07:21:35.936Z,36.41
2016-04-05T07:22:35.954Z,35.95
2016-04-05T07:23:35.972Z,35.95
2016-04-05T07:24:35.991Z,35.95
2016-04-05T07:25:36.024Z,35.47
2016-04-05T07:26:36.043Z,35.18
2016-04-05T07:27:36.061Z,35.76
2016-04-05T07:28:36.079Z,36.05
2016-04-05T07:29:36.129Z,36.72
2016-04-05T07:30:36.115Z,37.01
2016-04-05T07:31:36.151Z,37.1
2016-04-05T07:32:36.168Z,37.01
2016-04-05T07:33:36.186Z,35.47
2016-04-05T07:34:36.236Z,34.99
2016-04-05T07:35:36.239Z,34.8
2016-04-05T07:36:36.257Z,36.24
2016-04-05T07:37:36.275Z,36.91
2016-04-05T07:38:36.295Z,37.2
2016-04-05T07:39:36.328Z,37.02
2016-04-05T07:40:36.361Z,36.25
2016-04-05T07:41:36.380Z,37.02
2016-04-05T07:42:36.398Z,38.09
2016-04-05T07:43:36.433Z,36.16
2016-04-05T07:44:36.435Z,36.07
2016-04-05T07:45:36.594Z,36.16
2016-04-05T07:46:36.503Z,37.51
2016-04-05T07:47:36.505Z,37.32
2016-04-05T07:48:36.539Z,37.43
2016-04-05T07:49:36.574Z,36.66
2016-04-05T07:50:36.577Z,36.56
2016-04-05T07:51:36.594Z,36.56
2016-04-05T07:52:36.629Z,36.08
2016-04-05T07:53:36.647Z,36.18
2016-04-05T07:54:36.665Z,35.41
2016-04-05T07:55:36.683Z,35.33
2016-04-05T07:56:36.718Z,36.19
2016-04-05T07:57:36.735Z,36.1
2016-04-05T07:58:36.754Z,34.96
2016-04-05T07:59:36.788Z,34.58
2016-04-05T08:00:36.759Z,34.96
2016-04-05T08:01:36.840Z,34.86
2016-04-05T08:02:36.858Z,34.4
2016-04-05T08:03:36.877Z,34.4
2016-04-05T08:04:36.911Z,33.25
2016-04-05T08:05:36.960Z,34.32
2016-04-05T08:06:36.979Z,33.65
2016-04-05T08:07:36.965Z,32.59
2016-04-05T08:08:37.000Z,32.39
2016-04-05T08:09:37.034Z,33.37
2016-04-05T08:10:37.052Z,33.18
2016-04-05T08:11:37.070Z,32.21
2016-04-05T08:12:37.103Z,31.27
2016-04-05T08:13:37.123Z,31.46
2016-04-05T08:14:37.141Z,32.04
2016-04-05T08:15:37.191Z,30.88
2016-04-05T08:16:37.208Z,31.56
2016-04-05T08:17:37.227Z,31.18
2016-04-05T08:18:37.261Z,30.12
2016-04-05T08:19:37.279Z,30.32
2016-04-05T08:20:37.314Z,30.43
2016-04-05T08:21:37.332Z,30.43
2016-04-05T08:22:37.349Z,29.75
2016-04-05T08:23:37.415Z,29.57
2016-04-05T08:24:37.432Z,29.67
2016-04-05T08:25:37.436Z,28.89
2016-04-05T08:26:37.470Z,28.7
2016-04-05T08:27:37.519Z,29.69
2016-04-05T08:28:37.507Z,29.59
2016-04-05T08:29:37.540Z,28.33
2016-04-05T08:30:37.574Z,28.23
2016-04-05T08:31:37.593Z,28.43
2016-04-05T08:32:37.626Z,29.39
2016-04-05T08:33:37.660Z,28.91
2016-04-05T08:34:37.679Z,28.04
2016-04-05T08:35:37.698Z,27.94
2016-04-05T08:36:37.731Z,27.09
2016-04-05T08:37:37.765Z,27.76
2016-04-05T08:38:37.783Z,28.25
2016-04-05T08:39:37.817Z,27.58
2016-04-05T08:40:37.836Z,26.14
2016-04-05T08:41:37.853Z,26.62
2016-04-05T08:42:38.326Z,26.25
2016-04-05T08:43:37.922Z,25.56
2016-04-05T08:44:37.939Z,24.99
2016-04-05T08:45:37.989Z,24.61
2016-04-05T08:46:37.992Z,24.71
2016-04-05T08:47:38.027Z,25.59
2016-04-05T08:48:38.060Z,25.02
2016-04-05T08:49:38.079Z,23.37
2016-04-05T08:50:38.113Z,23.48
2016-04-05T08:51:38.130Z,23.49
2016-04-05T08:52:38.180Z,23.69
2016-04-05T08:53:38.198Z,22.82
2016-04-05T08:54:38.217Z,20.99
2016-04-05T08:55:38.266Z,19.82
2016-04-05T08:56:38.301Z,20.99
2016-04-05T08:57:38.319Z,21.66
2016-04-05T08:58:38.337Z,20.99
2016-04-05T08:59:38.371Z,20.89
2016-04-05T09:00:38.405Z,20.89
2016-04-05T09:01:38.423Z,19.62
2016-04-05T09:02:38.473Z,19.04
2016-04-05T09:03:38.507Z,18.65
2016-04-05T09:04:38.526Z,19.7
2016-04-05T09:05:38.637Z,18.93
2016-04-05T09:06:38.578Z,18.53
2016-04-05T09:07:38.626Z,19.4
2016-04-05T09:08:38.629Z,20
2016-04-05T09:09:38.684Z,20.29
2016-04-05T09:10:38.702Z,20.58
2016-04-05T09:11:38.737Z,20.48
2016-04-05T09:12:38.755Z,20.29
2016-04-05T09:13:38.789Z,19.9
2016-04-05T09:14:38.822Z,20.96
2016-04-05T09:15:38.856Z,19.51
2016-04-05T09:16:38.875Z,19.99
2016-04-05T09:17:38.908Z,18.92
2016-04-05T09:18:38.927Z,19.8
2016-04-05T09:19:38.961Z,18.83
2016-04-05T09:20:38.980Z,18.43
2016-04-05T09:21:39.029Z,17.56
2016-04-05T09:22:39.047Z,17.85
2016-04-05T09:23:39.066Z,17.85
2016-04-05T09:24:39.099Z,18.73
2016-04-05T09:25:39.133Z,17.36
2016-04-05T09:26:39.151Z,18.43
2016-04-05T09:27:39.202Z,19.02
2016-04-05T09:28:39.251Z,18.92
2016-04-05T09:29:39.254Z,18.33
2016-04-05T09:30:39.287Z,17.66
2016-04-05T09:31:39.306Z,17.08
2016-04-05T09:32:39.324Z,18.43
2016-04-05T09:33:39.373Z,18.53
2016-04-05T09:34:39.407Z,17.86
2016-04-05T09:35:39.426Z,17.28
2016-04-05T09:36:39.492Z,18.44
2016-04-05T09:37:39.479Z,17.76
2016-04-05T09:38:39.512Z,18.35
2016-04-05T09:39:39.546Z,17.58
2016-04-05T09:40:39.564Z,16.12
2016-04-05T09:41:39.598Z,16.12
2016-04-05T09:42:39.632Z,17.18
2016-04-05T09:43:39.667Z,15.54
2016-04-05T09:44:39.700Z,16.79
2016-04-05T09:45:39.702Z,16.5
2016-04-05T09:46:39.736Z,17.57
2016-04-05T09:47:39.771Z,17.47
2016-04-05T09:48:39.788Z,18.35
2016-04-05T09:49:39.822Z,17.47
2016-04-05T09:50:39.842Z,16.6
2016-04-05T09:51:39.891Z,17.57
2016-04-05T09:52:39.924Z,17.76
2016-04-05T09:53:39.944Z,17.47
2016-04-05T09:54:39.961Z,18.05
2016-04-05T09:55:39.996Z,16.5
2016-04-05T09:56:40.045Z,16.78
2016-04-05T09:57:40.063Z,16.49
2016-04-05T09:58:40.082Z,16.49
2016-04-05T09:59:40.115Z,16.98
2016-04-05T10:00:40.134Z,16.09
2016-04-05T10:01:40.183Z,16.78
2016-04-05T10:02:40.202Z,17.46
2016-04-05T10:03:40.235Z,17.27
2016-04-05T10:04:40.254Z,16.3
2016-04-05T10:05:40.287Z,16.2
2016-04-05T10:06:40.306Z,17.36
2016-04-05T10:07:40.339Z,16.88
2016-04-05T10:08:40.373Z,16.39
2016-04-05T10:09:40.408Z,16.11
2016-04-05T10:10:40.425Z,16.2
2016-04-05T10:11:40.444Z,16.88
2016-04-05T10:12:40.494Z,17.76
2016-04-05T10:13:40.512Z,17.08
2016-04-05T10:14:40.547Z,15.82
2016-04-05T10:15:40.565Z,16.41
2016-04-05T10:16:40.599Z,17.47
2016-04-05T10:17:40.633Z,17.28
2016-04-05T10:18:40.651Z,16.69
2016-04-05T10:19:40.685Z,17.57
2016-04-05T10:20:40.703Z,16.5
2016-04-05T10:21:40.752Z,16.51
2016-04-05T10:22:40.771Z,16.11
2016-04-05T10:23:40.805Z,16.89
2016-04-05T10:24:40.838Z,16.6
2016-04-05T10:25:40.858Z,16.31
2016-04-05T10:26:40.891Z,17.38
2016-04-05T10:27:40.925Z,17.38
2016-04-05T10:28:40.944Z,18.35
2016-04-05T10:29:40.962Z,18.44
2016-04-05T10:30:41.012Z,16.99
2016-04-05T10:31:41.029Z,16.79
2016-04-05T10:32:41.079Z,17.38
2016-04-05T10:33:41.098Z,16.21
2016-04-05T10:34:41.116Z,16.11
2016-04-05T10:35:41.134Z,15.34
2016-04-05T10:36:41.168Z,16.02
2016-04-05T10:37:41.201Z,17.38
2016-04-05T10:38:41.220Z,18.25
2016-04-05T10:39:41.254Z,18.54
2016-04-05T10:40:41.288Z,17.47
2016-04-05T10:41:41.322Z,16.5
2016-04-05T10:42:41.340Z,17.38
2016-04-05T10:43:41.374Z,16.22
2016-04-05T10:44:41.409Z,16.61
2016-04-05T10:45:41.442Z,15.45
2016-04-05T10:46:41.461Z,15.25
2016-04-05T10:47:41.478Z,14.38
2016-04-05T10:48:41.513Z,14.78
2016-04-05T10:49:41.547Z,16.43
2016-04-05T10:50:41.565Z,16.24
2016-04-05T10:51:41.614Z,14.78
2016-04-05T10:52:41.633Z,15.17
2016-04-05T10:53:41.666Z,14.78
2016-04-05T10:54:41.685Z,15.17
2016-04-05T10:55:41.734Z,14.59
2016-04-05T10:56:41.847Z,13.71
2016-04-05T10:57:41.787Z,13.23
2016-04-05T10:58:41.805Z,15.27
2016-04-05T10:59:41.840Z,14.39
2016-04-05T11:00:41.874Z,14.79
2016-04-05T11:01:41.891Z,15.37
2016-04-05T11:02:41.941Z,15.38
2016-04-05T11:03:41.959Z,16.16
2016-04-05T11:04:41.994Z,16.06
2016-04-05T11:05:42.043Z,16.26
2016-04-05T11:06:42.046Z,16.36
2016-04-05T11:07:42.082Z,14.03
2016-04-05T11:08:42.095Z,14.42
2016-04-05T11:09:42.130Z,16.85
2016-04-05T11:10:42.148Z,18.4
2016-04-05T11:11:42.385Z,18.21
2016-04-05T11:12:42.215Z,17.43
2016-04-05T11:13:42.250Z,18.6
2016-04-05T11:14:42.284Z,18.79
2016-04-05T11:15:42.318Z,19.37
2016-04-05T11:16:42.352Z,19.86
2016-04-05T11:17:42.370Z,19.17
2016-04-05T11:18:42.404Z,20.04
2016-04-05T11:19:42.423Z,19.74
2016-04-05T11:20:42.519Z,19.74
2016-04-05T11:21:42.506Z,20.32
2016-04-05T11:22:42.509Z,20.23
2016-04-05T11:23:42.543Z,20.42
2016-04-05T11:24:42.577Z,19.82
2016-04-05T11:25:42.610Z,20.4
2016-04-05T11:26:42.738Z,21.97
2016-04-05T11:27:42.678Z,21.19
2016-04-05T11:28:42.697Z,20.61
2016-04-05T11:29:42.716Z,21.68
2016-04-05T11:30:42.764Z,21.09
2016-04-05T11:31:42.799Z,21.68
2016-04-05T11:32:42.817Z,21.39
2016-04-05T11:33:42.851Z,18.76
2016-04-05T11:34:42.869Z,17.9
2016-04-05T11:35:42.903Z,18.38
2016-04-05T11:36:42.937Z,18.19
2016-04-05T11:37:42.971Z,18.09
2016-04-05T11:38:42.989Z,19.55
2016-04-05T11:39:43.023Z,19.16
2016-04-05T11:40:43.057Z,19.37
2016-04-05T11:41:43.075Z,18.88
2016-04-05T11:42:43.125Z,17.8
2016-04-05T11:43:43.142Z,19.07
2016-04-05T11:44:43.176Z,19.07
2016-04-05T11:45:43.211Z,19.17
2016-04-05T11:46:43.244Z,18.88
2016-04-05T11:47:43.279Z,18.39
2016-04-05T11:48:43.484Z,17.61
2016-04-05T11:49:43.315Z,17.42
2016-04-05T11:50:43.349Z,16.74
2016-04-05T11:51:43.365Z,17.13
2016-04-05T11:52:43.407Z,16.84
2016-04-05T11:53:43.416Z,16.55
2016-04-05T11:54:43.472Z,17.13
2016-04-05T11:55:43.466Z,17.14
2016-04-05T11:56:43.477Z,17.14
2016-04-05T11:57:43.508Z,16.36
2016-04-05T11:58:43.523Z,16.76
2016-04-05T11:59:43.553Z,17.64
2016-04-05T12:00:43.601Z,16.38
2016-04-05T12:01:43.616Z,16.28
2016-04-05T12:02:43.664Z,15.99
2016-04-05T12:03:43.666Z,16.29
2016-04-05T12:04:43.699Z,14.73
2016-04-05T12:05:43.731Z,14.92
2016-04-05T12:06:43.765Z,14.73
2016-04-05T12:07:43.798Z,15.31
2016-04-05T12:08:43.832Z,14.73
2016-04-05T12:09:43.865Z,14.44
2016-04-05T12:10:43.883Z,14.64
2016-04-05T12:11:43.917Z,15.32
2016-04-05T12:12:43.967Z,15.32
2016-04-05T12:13:43.969Z,15.81
2016-04-05T12:14:44.019Z,14.36
2016-04-05T12:15:44.037Z,14.45
2016-04-05T12:16:44.070Z,14.65
2016-04-05T12:17:44.105Z,15.33
2016-04-05T12:18:44.155Z,15.53
2016-04-05T12:19:44.158Z,14.46
2016-04-05T12:20:44.191Z,13.78
2016-04-05T12:21:44.241Z,13.49
2016-04-05T12:22:44.258Z,13
2016-04-05T12:23:44.293Z,12.99
2016-04-05T12:24:44.327Z,13.09
2016-04-05T12:25:44.361Z,13.28
2016-04-05T12:26:44.394Z,13.09
2016-04-05T12:27:44.413Z,13.48
2016-04-05T12:28:44.446Z,12.8
2016-04-05T12:29:44.481Z,12.6
2016-04-05T12:30:44.499Z,12.8
2016-04-05T12:31:44.471Z,12.51
2016-04-05T12:32:44.582Z,12.4
2016-04-05T12:33:44.601Z,12.8
2016-04-05T12:34:44.650Z,11.91
2016-04-05T12:35:44.684Z,12.11
2016-04-05T12:36:44.703Z,12.4
2016-04-05T12:37:44.799Z,13.09
2016-04-05T12:38:44.755Z,12.7
2016-04-05T12:39:44.805Z,12.89
2016-04-05T12:40:44.823Z,13.07
2016-04-05T12:41:44.856Z,13.66
2016-04-05T12:42:44.890Z,12.88
2016-04-05T12:43:44.925Z,13.66
2016-04-05T12:44:44.959Z,14.04
2016-04-05T12:45:44.993Z,14.53
2016-04-05T12:46:45.261Z,14.24
2016-04-05T12:47:45.044Z,13.85
2016-04-05T12:48:45.064Z,14.15
2016-04-05T12:49:45.114Z,13.76
2016-04-05T12:50:45.131Z,13.66
2016-04-05T12:51:45.181Z,13.27
2016-04-05T12:52:45.200Z,13.37
2016-04-05T12:53:45.217Z,12.58
2016-04-05T12:54:45.267Z,12.68
2016-04-05T12:55:45.285Z,13.26